Terminal Aerodrome Forecast
Issued by NWS Wilmington, OH

Current Version | Previous Version | Text Only | Print | Product List | Glossary Off
Versions: 1 2 3 4 5 6 7 8 9 10 11 12 13 14 15 16 17 18 19 20 21 22 23 24 25 26 27 28 29 30

000
FTUS41 KILN 262006 AAA
TAFCVG
TAF AMD
KCVG 262006Z 2620/2724 25006KT P6SM VCTS BKN035CB
     FM262200 30005KT P6SM VCTS BKN040CB
      TEMPO 2622/2624 3SM TSRA BR OVC020CB
     FM270100 03003KT P6SM VCSH BKN040
      TEMPO 2710/2712 5SM BR
     FM271500 08003KT P6SM FEW050=

USA.gov is the U.S. government's official web portal to all federal, state and local government web resources and services.